Time;durP1;ratioP1;P1;durP2;ratioP2;P2;SDS_P1;SDS_P2;PMS_P1;PMS_P2;Temp;Humidity;BMP_temperature;BMP_pressure;BME280_temperature;BME280_humidity;BME280_pressure;Samples;Min_cycle;Max_cycle;Signal;HPM_P1;HPM_P2
2023/02/26 00:00:20;;;;;;;7.28;3.08;;;4.10;99.90;;;;;;5073771;28;20170;-78
2023/02/26 00:02:47;;;;;;;9.23;2.40;;;4.10;99.90;;;;;;5075592;28;20205;-79
2023/02/26 00:05:15;;;;;;;3.60;2.10;;;4.20;99.90;;;;;;5074028;28;20170;-83
2023/02/26 00:07:41;;;;;;;8.50;2.63;;;4.00;99.90;;;;;;5075482;28;20229;-84
2023/02/26 00:10:10;;;;;;;7.00;2.00;;;3.80;99.90;;;;;;5076348;28;20220;-86
2023/02/26 00:12:36;;;;;;;8.68;2.33;;;3.70;99.90;;;;;;5075908;28;20191;-86
2023/02/26 00:15:03;;;;;;;18.90;3.05;;;3.60;99.90;;;;;;5075292;28;20173;-87
2023/02/26 00:17:32;;;;;;;3.10;1.70;;;3.60;99.90;;;;;;5076680;28;20231;-82
2023/02/26 00:19:59;;;;;;;7.93;2.10;;;3.60;99.90;;;;;;5076474;28;20206;-80
2023/02/26 00:22:25;;;;;;;8.73;2.25;;;3.50;99.90;;;;;;5076419;28;20167;-78
2023/02/26 00:24:51;;;;;;;7.57;2.25;;;3.50;99.90;;;;;;5075830;28;20619;-85
2023/02/26 00:27:17;;;;;;;24.05;2.88;;;3.60;99.90;;;;;;5074790;28;20540;-86
2023/02/26 00:29:43;;;;;;;7.90;1.95;;;3.70;99.90;;;;;;5076195;28;20220;-79
2023/02/26 00:32:09;;;;;;;7.05;2.15;;;3.80;99.90;;;;;;5075468;28;20163;-84
2023/02/26 00:34:35;;;;;;;15.10;2.65;;;3.90;99.90;;;;;;5075978;28;20261;-79
2023/02/26 00:37:29;;;;;;;4.50;2.38;;;4.20;99.90;;;;;;5075294;28;20224;-80
2023/02/26 00:40:15;;;;;;;5.95;2.55;;;4.10;99.90;;;;;;5075637;28;20626;-78
2023/02/26 00:42:41;;;;;;;10.82;2.17;;;4.20;99.90;;;;;;5075642;28;20684;-86
2023/02/26 00:45:08;;;;;;;5.50;2.08;;;4.00;99.90;;;;;;5075518;28;20174;-88
2023/02/26 00:48:11;;;;;;;11.05;3.13;;;4.10;99.90;;;;;;5076272;28;20218;-86
2023/02/26 00:50:46;;;;;;;3.85;1.90;;;4.00;99.90;;;;;;5076430;28;20176;-87
2023/02/26 00:53:47;;;;;;;7.22;1.92;;;4.00;99.90;;;;;;5075804;28;20178;-85
2023/02/26 00:56:13;;;;;;;9.27;2.33;;;4.00;99.90;;;;;;5074974;28;20186;-87
2023/02/26 00:58:38;;;;;;;8.13;2.90;;;3.90;99.90;;;;;;5075376;28;20208;-87
2023/02/26 01:01:04;;;;;;;10.25;2.55;;;4.00;99.90;;;;;;5075200;28;20632;-85
2023/02/26 01:03:31;;;;;;;4.47;2.35;;;3.90;99.90;;;;;;5075165;28;20190;-88
2023/02/26 01:05:57;;;;;;;5.40;2.53;;;3.80;99.90;;;;;;5074643;28;20177;-78
2023/02/26 01:08:28;;;;;;;9.10;2.88;;;3.70;99.90;;;;;;5074642;28;20202;-88
2023/02/26 01:10:54;;;;;;;10.70;2.63;;;3.70;99.90;;;;;;5073576;28;20315;-88
2023/02/26 01:13:20;;;;;;;16.95;2.50;;;3.70;99.90;;;;;;5074550;28;20281;-88
2023/02/26 01:15:53;;;;;;;3.33;2.25;;;3.70;99.90;;;;;;5074625;28;20166;-79
2023/02/26 01:18:30;;;;;;;7.40;2.35;;;3.70;99.90;;;;;;5074433;28;20170;-79
2023/02/26 01:21:05;;;;;;;15.50;2.97;;;3.60;99.90;;;;;;5074397;28;20158;-78
2023/02/26 01:23:35;;;;;;;4.25;2.08;;;3.60;99.90;;;;;;5074292;28;20186;-87
2023/02/26 01:26:10;;;;;;;6.93;2.53;;;3.60;99.90;;;;;;5073082;28;20571;-79
2023/02/26 01:28:36;;;;;;;6.25;2.30;;;3.60;99.90;;;;;;5073716;28;20176;-78
2023/02/26 01:31:09;;;;;;;9.82;2.30;;;3.60;99.90;;;;;;5073898;28;20175;-79
2023/02/26 01:33:43;;;;;;;12.80;2.50;;;3.40;99.90;;;;;;5073556;28;20206;-79
2023/02/26 01:36:16;;;;;;;6.50;1.90;;;3.30;99.90;;;;;;5073739;28;20174;-78
2023/02/26 01:38:48;;;;;;;15.13;2.35;;;3.40;99.90;;;;;;5073815;28;20241;-87
2023/02/26 01:41:24;;;;;;;9.02;2.28;;;3.40;99.90;;;;;;5074321;28;20167;-78
2023/02/26 01:44:03;;;;;;;4.03;2.00;;;3.40;99.90;;;;;;5073877;28;20186;-78
2023/02/26 01:46:53;;;;;;;6.32;2.25;;;3.30;99.90;;;;;;5072789;28;20634;-88
2023/02/26 01:49:19;;;;;;;6.25;2.60;;;3.30;99.90;;;;;;5073814;28;20171;-87
2023/02/26 01:51:54;;;;;;;2.10;1.60;;;3.00;99.90;;;;;;5072873;28;20170;-84
2023/02/26 01:54:22;;;;;;;5.97;2.53;;;3.00;99.90;;;;;;5073427;28;20192;-78
2023/02/26 01:57:10;;;;;;;3.95;1.90;;;2.90;99.90;;;;;;5073538;28;20166;-79
2023/02/26 01:59:38;;;;;;;7.32;2.05;;;3.00;99.90;;;;;;5071677;28;20178;-80
2023/02/26 02:02:06;;;;;;;8.13;2.20;;;3.20;99.90;;;;;;5073606;28;20544;-84
2023/02/26 02:04:33;;;;;;;22.35;2.28;;;3.30;99.90;;;;;;5073396;28;20190;-85
2023/02/26 02:06:59;;;;;;;15.77;2.53;;;3.30;99.90;;;;;;5073631;28;20540;-78
2023/02/26 02:09:24;;;;;;;7.57;2.30;;;3.30;99.90;;;;;;5073364;28;20169;-85
2023/02/26 02:12:12;;;;;;;6.80;2.42;;;3.20;99.90;;;;;;5073674;28;20190;-78
2023/02/26 02:14:40;;;;;;;6.68;1.60;;;3.20;99.90;;;;;;5073501;28;20198;-78
2023/02/26 02:17:08;;;;;;;9.80;2.35;;;3.30;99.90;;;;;;5073247;28;20245;-79
2023/02/26 02:20:33;;;;;;;12.77;2.55;;;3.30;99.90;;;;;;5073758;28;20167;-78
2023/02/26 02:23:21;;;;;;;6.18;1.90;;;3.20;99.90;;;;;;5071424;28;20869;-84
2023/02/26 02:26:02;;;;;;;10.27;2.47;;;3.10;99.90;;;;;;5073526;28;20183;-78
2023/02/26 02:29:02;;;;;;;6.20;1.80;;;3.10;99.90;;;;;;5073212;28;20170;-79
2023/02/26 02:31:32;;;;;;;2.75;1.83;;;3.10;99.90;;;;;;5073273;28;20166;-79
2023/02/26 02:34:26;;;;;;;6.20;2.20;;;3.20;99.90;;;;;;5073505;28;20712;-78
2023/02/26 02:37:28;;;;;;;7.68;1.45;;;3.10;99.90;;;;;;5072643;28;20244;-82
2023/02/26 02:40:23;;;;;;;9.77;1.60;;;3.00;99.90;;;;;;5072810;28;20537;-78
2023/02/26 02:43:03;;;;;;;6.50;1.83;;;3.00;99.90;;;;;;5073851;28;20191;-78
2023/02/26 02:45:31;;;;;;;8.25;2.38;;;3.00;99.90;;;;;;5073223;28;20174;-78
2023/02/26 02:48:07;;;;;;;14.88;2.28;;;3.10;99.90;;;;;;5073006;28;20250;-82
2023/02/26 02:50:42;;;;;;;6.20;1.88;;;3.10;99.90;;;;;;5072873;28;20249;-81
2023/02/26 02:53:16;;;;;;;6.60;2.00;;;3.10;99.90;;;;;;5072887;28;20182;-80
2023/02/26 02:55:57;;;;;;;14.82;2.42;;;3.30;99.90;;;;;;5073043;28;20174;-78
2023/02/26 02:58:29;;;;;;;3.05;1.50;;;3.30;99.90;;;;;;5073257;28;20684;-80
2023/02/26 03:00:59;;;;;;;3.30;1.83;;;3.20;99.90;;;;;;5073389;28;20174;-80
2023/02/26 03:03:55;;;;;;;8.13;1.73;;;3.10;99.90;;;;;;5071551;28;20193;-87
2023/02/26 03:06:21;;;;;;;5.00;1.15;;;3.20;99.90;;;;;;5071807;28;20269;-79
2023/02/26 03:08:47;;;;;;;5.45;1.75;;;3.10;99.90;;;;;;5073009;28;20257;-81
2023/02/26 03:11:14;;;;;;;12.05;1.63;;;3.10;99.90;;;;;;5072932;28;20241;-80
2023/02/26 03:13:40;;;;;;;5.43;1.65;;;3.20;99.90;;;;;;5071767;28;20576;-78
2023/02/26 03:16:34;;;;;;;5.47;1.60;;;3.10;99.90;;;;;;5073957;28;20163;-86
2023/02/26 03:19:25;;;;;;;1.45;1.33;;;3.10;99.90;;;;;;5071896;28;20642;-78
2023/02/26 03:22:22;;;;;;;2.50;1.20;;;3.00;99.90;;;;;;5074182;28;20635;-79
2023/02/26 03:25:00;;;;;;;2.33;1.13;;;2.90;99.90;;;;;;5073753;28;20261;-79
2023/02/26 03:27:35;;;;;;;7.07;1.50;;;2.90;99.90;;;;;;5076858;28;20218;-78
2023/02/26 03:30:21;;;;;;;6.18;1.73;;;2.80;99.90;;;;;;5076053;28;20174;-78
2023/02/26 03:32:55;;;;;;;1.77;1.35;;;2.90;99.90;;;;;;5073643;28;20183;-79
2023/02/26 03:35:54;;;;;;;4.45;1.23;;;2.80;99.90;;;;;;5076829;28;20623;-79
2023/02/26 03:39:05;;;;;;;10.27;1.75;;;2.70;99.90;;;;;;5072660;28;20658;-78
2023/02/26 03:41:45;;;;;;;4.78;1.48;;;2.70;99.90;;;;;;5072810;28;20182;-82
2023/02/26 03:44:28;;;;;;;2.92;1.20;;;2.70;99.90;;;;;;5073305;28;20183;-87
2023/02/26 03:47:06;;;;;;;12.35;1.80;;;2.80;99.90;;;;;;5072990;28;20202;-79
2023/02/26 03:49:46;;;;;;;7.88;1.38;;;2.80;99.90;;;;;;5073659;28;20208;-79
2023/02/26 03:52:13;;;;;;;5.68;1.85;;;2.80;99.90;;;;;;5076515;28;20162;-78
2023/02/26 03:55:08;;;;;;;11.55;2.47;;;2.90;99.90;;;;;;5076598;28;20186;-86
2023/02/26 03:57:34;;;;;;;3.22;1.77;;;2.90;99.90;;;;;;5076613;28;20194;-80
2023/02/26 04:00:00;;;;;;;6.72;2.17;;;3.00;99.90;;;;;;5075947;28;20167;-85
2023/02/26 04:02:47;;;;;;;7.82;1.75;;;2.90;99.90;;;;;;5077102;28;20257;-82
2023/02/26 04:05:22;;;;;;;2.35;1.10;;;2.80;99.90;;;;;;5076899;28;20329;-78
2023/02/26 04:07:48;;;;;;;7.18;1.80;;;2.90;99.90;;;;;;5084107;28;20323;-79
2023/02/26 04:10:18;;;;;;;5.05;1.52;;;2.80;99.90;;;;;;5087187;28;20163;-82
2023/02/26 04:12:44;;;;;;;2.70;1.20;;;2.80;99.90;;;;;;5095991;28;20202;-78
2023/02/26 04:15:10;;;;;;;5.53;1.17;;;2.50;99.90;;;;;;5096805;28;20167;-80
2023/02/26 04:17:36;;;;;;;4.10;1.33;;;2.50;99.90;;;;;;5095422;28;20161;-79
2023/02/26 04:20:06;;;;;;;8.38;2.08;;;2.60;99.90;;;;;;5095470;28;20238;-79
2023/02/26 04:22:33;;;;;;;2.80;1.42;;;2.50;99.90;;;;;;5096721;28;20154;-78
2023/02/26 04:24:58;;;;;;;4.63;1.52;;;2.50;99.90;;;;;;5093854;28;20165;-78
2023/02/26 04:27:24;;;;;;;2.83;1.27;;;2.30;99.90;;;;;;5092912;28;20266;-77
2023/02/26 04:29:49;;;;;;;8.10;1.60;;;2.40;99.90;;;;;;5093947;28;20183;-77
2023/02/26 04:32:15;;;;;;;3.07;1.27;;;2.50;99.90;;;;;;5094703;28;20151;-79
2023/02/26 04:34:41;;;;;;;1.30;1.20;;;2.40;99.90;;;;;;5094070;28;20194;-78
2023/02/26 04:37:06;;;;;;;3.57;1.20;;;2.50;99.90;;;;;;5094745;28;20174;-78
2023/02/26 04:39:32;;;;;;;5.83;1.53;;;2.30;99.90;;;;;;5093663;28;20230;-80
2023/02/26 04:41:57;;;;;;;2.67;1.23;;;2.30;99.90;;;;;;5095846;28;20182;-81
2023/02/26 04:44:23;;;;;;;2.65;1.00;;;2.30;99.90;;;;;;5087006;28;20190;-78
2023/02/26 04:46:48;;;;;;;4.93;1.55;;;2.30;99.90;;;;;;5083188;28;20217;-78
2023/02/26 04:49:14;;;;;;;4.55;1.23;;;2.00;99.90;;;;;;5075851;28;20537;-79
2023/02/26 04:51:39;;;;;;;6.07;1.20;;;2.10;99.90;;;;;;5077268;28;20171;-78
2023/02/26 04:54:05;;;;;;;6.85;1.17;;;2.30;99.90;;;;;;5079329;28;20194;-78
2023/02/26 04:56:31;;;;;;;2.92;1.10;;;2.40;99.90;;;;;;5075814;28;20171;-78
2023/02/26 04:58:57;;;;;;;4.38;1.10;;;2.30;99.90;;;;;;5076489;28;20171;-78
2023/02/26 05:01:22;;;;;;;13.57;1.40;;;2.20;99.90;;;;;;5076856;28;20194;-78
2023/02/26 05:03:48;;;;;;;3.40;1.10;;;2.20;99.90;;;;;;5077351;28;20186;-78
2023/02/26 05:06:14;;;;;;;6.17;1.10;;;2.50;99.90;;;;;;5076612;28;20657;-78
2023/02/26 05:08:41;;;;;;;5.53;1.17;;;2.40;99.90;;;;;;5075705;28;20171;-78
2023/02/26 05:11:10;;;;;;;2.78;1.40;;;2.30;99.90;;;;;;5076142;28;20159;-78
2023/02/26 05:13:37;;;;;;;3.57;1.17;;;2.20;99.90;;;;;;5074169;28;20194;-78
2023/02/26 05:16:03;;;;;;;8.47;1.20;;;2.20;99.90;;;;;;5075815;28;20258;-78
2023/02/26 05:18:28;;;;;;;5.30;1.63;;;2.30;99.90;;;;;;5075997;28;20167;-79
2023/02/26 05:20:55;;;;;;;7.57;1.73;;;2.30;99.90;;;;;;5075408;28;20627;-78
2023/02/26 05:23:21;;;;;;;4.23;1.13;;;2.30;99.90;;;;;;5073901;28;20555;-80
2023/02/26 05:25:47;;;;;;;5.97;1.52;;;2.10;99.90;;;;;;5074063;28;20264;-78
2023/02/26 05:28:13;;;;;;;1.70;1.17;;;2.20;99.90;;;;;;5073652;28;20662;-80
2023/02/26 05:30:39;;;;;;;5.00;1.55;;;2.20;99.90;;;;;;5073524;28;20176;-79
2023/02/26 05:33:05;;;;;;;4.88;1.55;;;2.20;99.90;;;;;;5073126;28;20212;-76
2023/02/26 05:35:30;;;;;;;7.60;1.48;;;2.10;99.90;;;;;;5073608;28;20498;-82
2023/02/26 05:37:56;;;;;;;5.78;1.20;;;2.10;99.90;;;;;;5073387;28;20174;-79
2023/02/26 05:40:22;;;;;;;3.85;1.10;;;2.00;99.90;;;;;;5073266;28;20158;-78
2023/02/26 05:42:48;;;;;;;2.88;1.45;;;2.10;99.90;;;;;;5073658;28;20539;-80
2023/02/26 05:45:14;;;;;;;1.90;1.20;;;2.20;99.90;;;;;;5073426;28;20162;-79
2023/02/26 05:47:40;;;;;;;5.77;1.70;;;2.10;99.90;;;;;;5073431;28;20233;-79
2023/02/26 05:50:06;;;;;;;4.93;1.38;;;2.20;99.90;;;;;;5073327;28;20668;-78
2023/02/26 05:52:32;;;;;;;1.70;1.13;;;2.30;99.90;;;;;;5073527;28;20642;-79
2023/02/26 05:54:58;;;;;;;8.38;1.50;;;2.20;99.90;;;;;;5073214;28;20228;-80
2023/02/26 05:57:24;;;;;;;1.65;1.15;;;2.00;99.90;;;;;;5073191;28;20556;-78
2023/02/26 05:59:50;;;;;;;7.63;1.40;;;2.00;99.90;;;;;;5073163;28;20175;-79
2023/02/26 06:02:15;;;;;;;14.97;1.60;;;1.90;99.90;;;;;;5072335;28;20174;-79
2023/02/26 06:04:41;;;;;;;4.60;1.40;;;1.80;99.90;;;;;;5071446;28;20646;-80
2023/02/26 06:07:07;;;;;;;1.63;1.20;;;1.80;99.90;;;;;;5073051;28;20202;-78
2023/02/26 06:09:32;;;;;;;3.70;1.48;;;1.70;99.90;;;;;;5071554;28;20173;-79
2023/02/26 06:11:58;;;;;;;3.20;1.65;;;1.70;99.90;;;;;;5072844;28;20171;-79
2023/02/26 06:14:24;;;;;;;14.53;1.50;;;1.60;99.90;;;;;;5072967;28;20556;-78
2023/02/26 06:16:49;;;;;;;3.97;1.10;;;1.70;99.90;;;;;;5072822;28;20166;-81
2023/02/26 06:19:15;;;;;;;5.37;1.00;;;1.50;99.90;;;;;;5072968;28;20162;-79
2023/02/26 06:21:40;;;;;;;3.78;1.45;;;1.40;99.90;;;;;;5072819;28;20167;-80
2023/02/26 06:24:06;;;;;;;3.67;1.90;;;1.40;99.90;;;;;;5072863;28;20195;-80
2023/02/26 06:26:32;;;;;;;6.27;1.80;;;1.40;99.90;;;;;;5072864;28;20194;-83
2023/02/26 06:28:58;;;;;;;1.83;1.00;;;1.40;99.90;;;;;;5072917;28;20173;-78
2023/02/26 06:31:23;;;;;;;11.33;1.70;;;1.30;99.90;;;;;;5072728;28;20161;-79
2023/02/26 06:33:49;;;;;;;13.33;1.17;;;1.50;99.90;;;;;;5071636;28;20213;-79
2023/02/26 06:36:16;;;;;;;4.80;1.10;;;1.60;99.90;;;;;;5072822;28;20201;-78
2023/02/26 06:38:44;;;;;;;9.07;2.13;;;1.50;99.90;;;;;;5071993;28;20259;-79
2023/02/26 06:41:10;;;;;;;4.30;1.10;;;1.50;99.90;;;;;;5072761;28;20162;-79
2023/02/26 06:43:35;;;;;;;9.20;1.20;;;1.50;99.90;;;;;;5072459;28;20205;-78
2023/02/26 06:46:01;;;;;;;3.23;1.30;;;1.50;99.90;;;;;;5071467;28;20190;-80
2023/02/26 06:48:27;;;;;;;4.50;1.40;;;1.50;99.90;;;;;;5072793;28;20664;-85
2023/02/26 06:50:52;;;;;;;2.63;0.83;;;1.70;99.90;;;;;;5072519;28;20169;-79
2023/02/26 06:53:18;;;;;;;8.37;1.17;;;1.60;99.90;;;;;;5072296;28;20186;-79
2023/02/26 06:55:45;;;;;;;1.17;0.90;;;1.40;99.90;;;;;;5072301;28;20167;-78
2023/02/26 06:58:12;;;;;;;11.60;1.53;;;1.40;99.90;;;;;;5072379;28;20182;-78
2023/02/26 07:00:39;;;;;;;3.13;1.00;;;1.40;99.90;;;;;;5072465;28;20194;-78
2023/02/26 07:03:05;;;;;;;5.40;1.37;;;1.40;99.90;;;;;;5072209;28;20195;-78
2023/02/26 07:05:30;;;;;;;4.33;0.90;;;1.40;99.90;;;;;;5072280;28;20561;-78
2023/02/26 07:07:56;;;;;;;9.37;1.27;;;1.30;99.90;;;;;;5072128;28;20216;-78
2023/02/26 07:10:23;;;;;;;8.10;0.90;;;1.60;99.90;;;;;;5072295;28;20523;-78
2023/02/26 07:12:49;;;;;;;6.40;1.10;;;1.70;99.90;;;;;;5072143;28;20611;-78
2023/02/26 07:15:16;;;;;;;9.93;1.30;;;1.40;99.90;;;;;;5071995;28;20167;-78
2023/02/26 07:17:41;;;;;;;1.07;0.80;;;1.30;99.90;;;;;;5072012;28;20170;-79
2023/02/26 07:20:09;;;;;;;1.77;1.10;;;1.40;99.90;;;;;;5072178;28;20250;-77
2023/02/26 07:22:36;;;;;;;1.73;0.97;;;1.50;99.90;;;;;;5072004;28;20167;-78
2023/02/26 07:25:03;;;;;;;3.07;0.90;;;1.60;99.90;;;;;;5075033;28;20163;-77
2023/02/26 07:27:29;;;;;;;3.27;0.97;;;1.60;99.90;;;;;;5074714;28;20263;-82
2023/02/26 07:29:54;;;;;;;3.10;0.97;;;1.70;99.90;;;;;;5076027;28;20573;-78
2023/02/26 07:32:21;;;;;;;1.43;0.80;;;1.70;99.90;;;;;;5075829;28;20212;-80
2023/02/26 07:34:47;;;;;;;10.13;1.70;;;1.70;99.90;;;;;;5075904;28;20625;-77
2023/02/26 07:37:13;;;;;;;1.87;0.93;;;1.80;99.90;;;;;;5075618;28;20201;-78
2023/02/26 07:39:38;;;;;;;3.03;1.30;;;1.90;99.90;;;;;;5075416;28;20216;-79
2023/02/26 07:42:04;;;;;;;4.97;1.35;;;2.00;99.90;;;;;;5073170;28;20178;-82
2023/02/26 07:44:30;;;;;;;5.75;0.90;;;2.00;99.90;;;;;;5075232;28;20205;-78
2023/02/26 07:46:55;;;;;;;7.10;1.35;;;1.90;99.90;;;;;;5075902;28;20202;-79
2023/02/26 07:49:21;;;;;;;3.03;1.00;;;1.90;99.90;;;;;;5075983;28;20171;-80
2023/02/26 07:51:47;;;;;;;8.38;0.90;;;2.10;99.90;;;;;;5077975;28;20183;-79
2023/02/26 07:54:13;;;;;;;4.22;1.27;;;2.00;99.90;;;;;;5075574;28;20244;-81
2023/02/26 07:56:41;;;;;;;4.85;1.15;;;2.10;99.90;;;;;;5076361;28;20174;-80
2023/02/26 07:59:08;;;;;;;1.48;0.73;;;2.00;99.90;;;;;;5076825;28;20522;-80
2023/02/26 08:01:34;;;;;;;3.70;1.38;;;2.10;99.90;;;;;;5075484;28;20162;-83
2023/02/26 08:04:00;;;;;;;6.68;1.10;;;2.20;99.90;;;;;;5073799;28;20224;-86
2023/02/26 08:06:26;;;;;;;5.18;1.88;;;2.10;99.90;;;;;;5070221;28;20182;-78
2023/02/26 08:08:52;;;;;;;3.53;1.35;;;2.20;99.90;;;;;;5075014;28;20526;-79
2023/02/26 08:11:18;;;;;;;5.60;1.13;;;2.30;99.90;;;;;;5075898;28;20174;-82
2023/02/26 08:13:43;;;;;;;2.67;0.90;;;2.30;99.90;;;;;;5075670;28;20190;-78
2023/02/26 08:16:09;;;;;;;3.50;1.27;;;2.30;99.90;;;;;;5096741;28;20169;-94
2023/02/26 08:18:35;;;;;;;3.50;1.15;;;2.30;99.90;;;;;;5072704;28;20186;-80
2023/02/26 08:21:01;;;;;;;4.07;1.07;;;2.50;99.90;;;;;;5071593;28;20531;-83
2023/02/26 08:23:27;;;;;;;5.15;0.90;;;2.60;99.90;;;;;;5074627;28;20202;-76
2023/02/26 08:26:06;;;;;;;8.27;1.30;;;2.60;99.90;;;;;;5077145;28;20173;-84
2023/02/26 08:28:33;;;;;;;2.53;1.00;;;2.60;99.90;;;;;;5076507;28;20201;-84
2023/02/26 08:30:59;;;;;;;9.60;1.25;;;2.70;99.90;;;;;;5075617;28;20189;-81
2023/02/26 08:33:25;;;;;;;3.90;0.88;;;2.60;99.90;;;;;;5074650;28;20186;-79
2023/02/26 08:35:52;;;;;;;6.53;0.90;;;2.60;99.90;;;;;;5074103;28;20166;-78
2023/02/26 08:38:19;;;;;;;1.35;0.90;;;2.70;99.90;;;;;;5074816;28;20186;-80
2023/02/26 08:40:44;;;;;;;1.50;0.80;;;2.70;99.90;;;;;;5074349;28;20162;-78
2023/02/26 08:43:11;;;;;;;1.33;0.68;;;2.70;99.90;;;;;;5074992;28;20269;-79
2023/02/26 08:45:37;;;;;;;2.15;0.90;;;2.70;99.90;;;;;;5074703;28;20206;-81
2023/02/26 08:48:03;;;;;;;2.80;1.05;;;2.90;99.90;;;;;;5073938;28;20624;-79
2023/02/26 08:50:29;;;;;;;1.08;0.70;;;2.90;99.90;;;;;;5074914;28;20181;-78
2023/02/26 08:52:54;;;;;;;2.55;0.85;;;3.00;99.90;;;;;;5074838;28;20195;-81
2023/02/26 08:55:21;;;;;;;3.28;0.95;;;3.00;99.90;;;;;;5070524;28;20181;-81
2023/02/26 08:57:47;;;;;;;11.52;1.63;;;2.90;99.90;;;;;;5077590;28;20220;-81
2023/02/26 09:00:17;;;;;;;2.15;0.80;;;2.90;99.90;;;;;;5078252;28;20170;-90
2023/02/26 09:02:43;;;;;;;3.03;0.70;;;2.90;99.90;;;;;;5075054;28;20229;-87
2023/02/26 09:05:09;;;;;;;3.83;0.82;;;2.90;99.90;;;;;;5074382;28;20194;-87
2023/02/26 09:07:34;;;;;;;2.03;1.17;;;2.90;99.90;;;;;;5070482;28;20940;-81
2023/02/26 09:10:00;;;;;;;6.75;0.73;;;2.90;99.90;;;;;;5077338;28;20162;-87
2023/02/26 09:12:26;;;;;;;5.13;0.82;;;3.00;99.90;;;;;;5093827;28;20170;-83
2023/02/26 09:14:51;;;;;;;2.97;0.80;;;3.00;99.90;;;;;;5091971;28;20170;-85
2023/02/26 09:17:17;;;;;;;1.52;0.70;;;3.10;99.90;;;;;;5077863;28;20269;-83
2023/02/26 09:19:43;;;;;;;1.58;0.80;;;3.20;99.90;;;;;;5072863;28;20167;-81
2023/02/26 09:22:08;;;;;;;2.45;1.30;;;3.10;99.90;;;;;;5073229;28;20171;-83
2023/02/26 09:24:34;;;;;;;4.20;0.85;;;3.20;99.90;;;;;;5071778;28;20297;-84
2023/02/26 09:27:02;;;;;;;3.00;0.95;;;3.20;99.90;;;;;;5073263;28;20210;-83
2023/02/26 09:29:28;;;;;;;6.97;1.38;;;3.30;99.90;;;;;;5071390;28;20915;-81
2023/02/26 09:31:54;;;;;;;2.67;0.70;;;3.30;99.90;;;;;;5080771;28;20178;-83
2023/02/26 09:34:19;;;;;;;2.45;1.10;;;3.30;99.90;;;;;;5072782;28;20275;-80
2023/02/26 09:36:45;;;;;;;3.35;0.90;;;3.40;99.90;;;;;;5072928;28;20253;-80
2023/02/26 09:39:11;;;;;;;3.75;0.52;;;3.40;99.90;;;;;;5072279;28;20225;-79
2023/02/26 09:41:51;;;;;;;2.10;1.15;;;3.40;99.90;;;;;;5054725;28;20254;-80
2023/02/26 09:44:24;;;;;;;7.90;0.90;;;3.40;99.90;;;;;;5067517;28;20202;-82
2023/02/26 09:47:12;;;;;;;1.55;0.70;;;3.40;99.90;;;;;;5068864;28;20260;-80
2023/02/26 09:50:04;;;;;;;3.40;0.95;;;3.50;99.90;;;;;;5054269;28;20197;-80
2023/02/26 09:52:57;;;;;;;2.72;1.00;;;3.70;99.90;;;;;;5061516;28;20562;-79
2023/02/26 09:55:44;;;;;;;1.20;0.80;;;3.80;99.90;;;;;;5052474;28;20278;-80
2023/02/26 09:58:29;;;;;;;8.52;0.82;;;3.60;99.90;;;;;;5051219;28;20629;-80
2023/02/26 10:01:23;;;;;;;3.53;0.73;;;3.60;99.90;;;;;;5068632;28;20220;-79
2023/02/26 10:03:52;;;;;;;1.85;0.95;;;3.70;99.90;;;;;;5060414;28;20339;-79
2023/02/26 10:06:27;;;;;;;3.70;1.00;;;3.90;99.90;;;;;;5066267;28;20198;-81
2023/02/26 10:09:07;;;;;;;3.80;0.95;;;4.00;99.90;;;;;;5070368;28;20658;-80
2023/02/26 10:11:46;;;;;;;8.85;1.10;;;3.90;99.90;;;;;;5061124;28;20201;-81
2023/02/26 10:14:26;;;;;;;0.70;0.50;;;3.90;99.90;;;;;;5052770;28;20237;-82
2023/02/26 10:16:56;;;;;;;1.45;0.80;;;4.10;99.90;;;;;;5063496;28;20186;-81
2023/02/26 10:19:30;;;;;;;3.88;0.68;;;4.10;99.90;;;;;;5052536;28;20202;-80
2023/02/26 10:22:27;;;;;;;1.95;1.08;;;4.00;99.90;;;;;;5061088;28;20179;-80
2023/02/26 10:25:09;;;;;;;1.20;0.60;;;4.20;99.90;;;;;;5068674;28;20200;-81
2023/02/26 10:27:47;;;;;;;2.60;0.65;;;4.20;99.90;;;;;;5065961;28;20233;-78
2023/02/26 10:30:20;;;;;;;1.00;0.60;;;4.20;99.90;;;;;;5066015;28;20175;-80
2023/02/26 10:33:28;;;;;;;4.78;1.50;;;4.30;99.90;;;;;;5056774;28;20234;-79
2023/02/26 10:36:01;;;;;;;2.30;0.80;;;4.30;99.90;;;;;;5059227;28;20181;-80
2023/02/26 10:38:30;;;;;;;1.98;0.80;;;4.20;99.90;;;;;;5059042;28;20530;-80
2023/02/26 10:41:10;;;;;;;2.80;0.90;;;4.40;99.90;;;;;;5054332;28;20193;-81
2023/02/26 10:43:42;;;;;;;1.13;0.52;;;4.60;99.90;;;;;;5053056;28;20190;-80
2023/02/26 10:46:07;;;;;;;1.77;0.80;;;4.70;99.90;;;;;;5052355;28;20194;-79
2023/02/26 10:48:42;;;;;;;3.17;0.85;;;4.60;99.90;;;;;;5051793;28;20206;-80
2023/02/26 10:51:19;;;;;;;0.82;0.50;;;4.60;99.90;;;;;;5051725;28;20205;-82
2023/02/26 10:53:54;;;;;;;3.90;0.90;;;4.60;99.90;;;;;;5051970;28;20193;-88
2023/02/26 10:56:28;;;;;;;8.63;0.73;;;4.30;99.90;;;;;;5053871;28;20615;-90
2023/02/26 10:58:54;;;;;;;0.80;0.60;;;4.30;99.90;;;;;;5054664;28;20190;-85
2023/02/26 11:01:22;;;;;;;3.78;0.65;;;4.10;99.90;;;;;;5051409;28;20568;-79
2023/02/26 11:03:54;;;;;;;1.67;1.10;;;4.10;99.90;;;;;;5050895;28;20670;-79
2023/02/26 11:06:28;;;;;;;0.57;0.50;;;4.00;99.90;;;;;;5051350;28;20167;-80
2023/02/26 11:08:56;;;;;;;11.30;1.08;;;4.20;99.90;;;;;;5051582;28;20269;-79
2023/02/26 11:12:03;;;;;;;1.20;0.73;;;4.20;99.90;;;;;;5051461;28;20242;-80
2023/02/26 11:14:31;;;;;;;0.60;0.50;;;4.40;99.90;;;;;;5040128;28;20199;-82
2023/02/26 11:17:00;;;;;;;2.78;0.70;;;4.60;99.90;;;;;;5052003;28;20628;-78
2023/02/26 11:19:31;;;;;;;1.08;0.68;;;4.50;99.90;;;;;;5051754;28;20202;-78
2023/02/26 11:21:59;;;;;;;0.70;0.55;;;4.40;99.90;;;;;;5051517;28;20173;-81
2023/02/26 11:24:37;;;;;;;1.08;0.73;;;4.30;99.90;;;;;;5051040;28;20183;-80
2023/02/26 11:27:05;;;;;;;3.50;0.90;;;4.40;99.90;;;;;;5050324;28;20566;-78
2023/02/26 11:29:42;;;;;;;1.80;0.73;;;4.30;99.90;;;;;;5049446;28;20167;-78
2023/02/26 11:32:21;;;;;;;0.52;0.52;;;4.50;99.90;;;;;;5049992;28;20200;-78
2023/02/26 11:34:50;;;;;;;3.03;0.82;;;4.50;99.90;;;;;;5051898;28;20191;-78
2023/02/26 11:37:46;;;;;;;3.60;0.70;;;4.40;99.90;;;;;;5051684;28;20167;-79
2023/02/26 11:40:25;;;;;;;6.72;0.90;;;4.50;99.90;;;;;;5051946;28;20193;-78
2023/02/26 11:42:58;;;;;;;3.33;0.75;;;4.70;99.90;;;;;;5051413;28;20191;-78
2023/02/26 11:45:24;;;;;;;1.15;0.77;;;4.50;99.90;;;;;;5050167;28;20201;-78
2023/02/26 11:48:01;;;;;;;0.50;0.50;;;4.70;99.90;;;;;;5051932;28;20199;-78
2023/02/26 11:50:28;;;;;;;3.90;0.57;;;4.80;99.90;;;;;;5051663;28;20193;-78
2023/02/26 11:53:02;;;;;;;2.22;0.90;;;4.70;99.90;;;;;;5051784;28;20187;-78
2023/02/26 11:55:33;;;;;;;6.85;0.75;;;4.60;99.90;;;;;;5051684;28;20154;-77
2023/02/26 11:57:58;;;;;;;3.97;0.68;;;4.70;99.90;;;;;;5051696;28;20270;-78
2023/02/26 12:00:24;;;;;;;2.00;0.80;;;4.80;99.90;;;;;;5052038;28;20164;-78
2023/02/26 12:02:50;;;;;;;1.38;0.65;;;4.80;99.90;;;;;;5051084;28;20539;-78
2023/02/26 12:05:17;;;;;;;1.20;0.60;;;4.90;99.90;;;;;;5051852;28;20250;-78
2023/02/26 12:07:45;;;;;;;9.75;0.77;;;5.10;99.90;;;;;;5051491;28;20284;-78
2023/02/26 12:10:23;;;;;;;4.07;1.10;;;5.00;99.90;;;;;;5051717;28;20178;-78
2023/02/26 12:13:12;;;;;;;2.33;0.82;;;5.10;99.90;;;;;;5055371;28;20183;-78
2023/02/26 12:16:19;;;;;;;0.85;0.50;;;5.00;99.90;;;;;;5058052;28;20187;-79
2023/02/26 12:19:15;;;;;;;5.72;1.08;;;4.90;99.90;;;;;;5061271;28;20702;-78
2023/02/26 12:21:49;;;;;;;1.08;0.75;;;4.80;99.90;;;;;;5054942;28;20232;-78
2023/02/26 12:24:31;;;;;;;4.47;0.80;;;4.80;99.90;;;;;;5055067;28;20188;-79
2023/02/26 12:27:33;;;;;;;1.27;0.77;;;4.80;99.90;;;;;;5055007;28;20211;-78
2023/02/26 12:30:17;;;;;;;3.97;1.55;;;4.90;99.90;;;;;;5055235;28;20209;-78
2023/02/26 12:32:57;;;;;;;1.65;0.50;;;5.00;99.90;;;;;;5054913;28;20191;-79
2023/02/26 12:35:54;;;;;;;2.05;0.77;;;5.00;99.90;;;;;;5053704;28;20199;-78
2023/02/26 12:38:33;;;;;;;4.63;0.75;;;5.00;99.90;;;;;;5054686;28;20503;-79
2023/02/26 12:41:41;;;;;;;0.57;0.55;;;5.10;99.90;;;;;;5054897;28;20167;-78
2023/02/26 12:44:15;;;;;;;3.95;0.80;;;5.30;99.90;;;;;;5060702;28;20206;-78
2023/02/26 12:47:12;;;;;;;4.05;0.95;;;5.30;99.90;;;;;;5054448;28;20183;-83
2023/02/26 12:49:49;;;;;;;2.50;0.82;;;5.50;99.90;;;;;;5054506;28;20163;-78
2023/02/26 12:52:24;;;;;;;0.60;0.50;;;5.50;99.90;;;;;;5054313;28;20170;-86
2023/02/26 12:55:01;;;;;;;1.52;1.02;;;5.50;99.90;;;;;;5055146;28;20169;-80
2023/02/26 12:57:29;;;;;;;2.15;0.63;;;5.40;99.90;;;;;;5054682;28;20186;-82
2023/02/26 13:00:11;;;;;;;1.13;0.68;;;5.50;99.90;;;;;;5054396;28;20635;-82
2023/02/26 13:03:05;;;;;;;0.93;0.70;;;5.50;99.90;;;;;;5054811;28;20229;-81
2023/02/26 13:05:43;;;;;;;3.05;0.80;;;5.40;99.90;;;;;;5054601;28;20178;-89
2023/02/26 13:08:32;;;;;;;1.88;0.60;;;5.30;99.90;;;;;;5054308;28;20207;-82
2023/02/26 13:11:18;;;;;;;0.70;0.50;;;5.30;99.90;;;;;;5054510;28;20246;-86
2023/02/26 13:13:59;;;;;;;1.25;0.50;;;5.50;99.90;;;;;;5053897;28;20191;-79
2023/02/26 13:16:36;;;;;;;2.13;0.57;;;5.60;99.90;;;;;;5054197;28;20170;-79
2023/02/26 13:19:07;;;;;;;1.40;0.65;;;5.70;99.90;;;;;;5054230;28;20515;-79
2023/02/26 13:21:37;;;;;;;1.42;0.70;;;5.80;99.90;;;;;;5053130;28;20171;-87